Time;durP1;ratioP1;P1;durP2;ratioP2;P2;SDS_P1;SDS_P2;PMS_P1;PMS_P2;Temp;Humidity;BMP_temperature;BMP_pressure;BME280_temperature;BME280_humidity;BME280_pressure;Samples;Min_cycle;Max_cycle;Signal;HPM_P1;HPM_P2
2022/03/23 00:01:07;;;;;;;28.87;17.83;;;;;;;;;;4960395;28;20027;-67
2022/03/23 00:03:34;;;;;;;25.80;18.33;;;;;;;;;;4953521;29;20114;-67
2022/03/23 00:06:01;;;;;;;28.77;19.30;;;7.70;99.90;;;;;;4954162;28;20110;-67
2022/03/23 00:08:27;;;;;;;31.50;18.77;;;7.70;99.90;;;;;;4956659;28;20168;-67
2022/03/23 00:10:53;;;;;;;26.93;18.77;;;;;;;;;;4955733;28;20070;-67
2022/03/23 00:13:18;;;;;;;24.63;16.90;;;7.60;99.90;;;;;;4953220;29;20027;-67
2022/03/23 00:15:45;;;;;;;27.93;20.10;;;7.60;99.90;;;;;;4957286;28;20035;-67
2022/03/23 00:18:11;;;;;;;31.13;21.47;;;;;;;;;;4953555;28;20498;-67
2022/03/23 00:20:37;;;;;;;27.80;19.80;;;7.40;99.90;;;;;;4961462;28;20469;-67
2022/03/23 00:23:03;;;;;;;28.30;19.10;;;;;;;;;;4972613;28;20082;-66
2022/03/23 00:25:29;;;;;;;26.80;18.23;;;7.30;99.90;;;;;;4971931;28;20074;-67
2022/03/23 00:27:54;;;;;;;27.87;20.07;;;7.20;99.20;;;;;;4956809;28;20035;-67
2022/03/23 00:30:21;;;;;;;28.27;17.17;;;7.20;99.90;;;;;;4953013;29;20027;-67
2022/03/23 00:32:46;;;;;;;25.67;17.57;;;7.10;99.90;;;;;;4953595;28;20055;-67
2022/03/23 00:35:12;;;;;;;27.83;16.27;;;7.10;96.80;;;;;;4972286;28;20023;-66
2022/03/23 00:37:38;;;;;;;26.73;17.20;;;;;;;;;;4961744;28;20086;-66
2022/03/23 00:40:04;;;;;;;24.07;16.33;;;6.90;99.90;;;;;;4961802;28;20480;-67
2022/03/23 00:42:30;;;;;;;26.73;18.57;;;7.00;98.40;;;;;;4970874;28;20121;-66
2022/03/23 00:44:55;;;;;;;26.93;16.57;;;7.00;99.90;;;;;;4972316;28;20110;-66
2022/03/23 00:47:21;;;;;;;29.13;16.77;;;7.10;99.90;;;;;;4971905;28;20396;-67
2022/03/23 00:49:46;;;;;;;28.20;16.53;;;7.00;99.90;;;;;;4971732;28;20023;-67
2022/03/23 00:52:12;;;;;;;23.43;16.87;;;7.10;99.90;;;;;;4958020;28;20019;-67
2022/03/23 00:54:38;;;;;;;24.37;17.23;;;;;;;;;;4971580;28;20438;-67
2022/03/23 00:57:05;;;;;;;30.33;18.10;;;6.90;99.90;;;;;;4963412;28;20489;-67
2022/03/23 00:59:32;;;;;;;26.87;17.43;;;6.90;99.90;;;;;;4954404;28;20118;-67
2022/03/23 01:01:58;;;;;;;27.07;17.07;;;6.80;99.90;;;;;;4971730;28;20031;-67
2022/03/23 01:04:25;;;;;;;25.67;17.10;;;;;;;;;;4971945;28;20026;-66
2022/03/23 01:06:52;;;;;;;31.33;18.20;;;6.90;99.90;;;;;;4970228;28;20404;-67
2022/03/23 01:09:25;;;;;;;24.63;16.63;;;6.90;99.90;;;;;;4971053;28;20053;-67
2022/03/23 01:11:52;;;;;;;27.97;16.43;;;6.80;96.10;;;;;;4959135;28;20062;-67
2022/03/23 01:14:18;;;;;;;32.37;16.60;;;7.10;99.90;;;;;;4971830;28;20039;-67
2022/03/23 01:16:44;;;;;;;30.07;18.13;;;7.40;95.80;;;;;;4954962;28;20028;-66
2022/03/23 01:19:10;;;;;;;27.53;17.07;;;7.70;99.90;;;;;;4952170;29;20049;-67
2022/03/23 01:21:36;;;;;;;29.33;18.73;;;8.00;99.90;;;;;;4967172;28;20067;-67
2022/03/23 01:24:02;;;;;;;25.63;17.30;;;8.20;99.90;;;;;;4970689;28;20031;-67
2022/03/23 01:26:28;;;;;;;28.10;16.80;;;;;;;;;;4960303;28;20395;-67
2022/03/23 01:28:54;;;;;;;23.83;16.07;;;8.20;99.90;;;;;;4971608;28;20037;-67
2022/03/23 01:31:19;;;;;;;30.20;17.67;;;8.20;95.60;;;;;;4958525;28;20383;-67
2022/03/23 01:33:45;;;;;;;31.53;17.73;;;8.00;99.90;;;;;;4952531;29;20453;-67
2022/03/23 01:36:11;;;;;;;25.80;17.53;;;7.70;99.90;;;;;;4953621;28;20094;-67
2022/03/23 01:38:37;;;;;;;27.00;16.80;;;7.90;99.90;;;;;;4951859;29;20421;-68
2022/03/23 01:41:03;;;;;;;22.83;14.43;;;7.80;99.90;;;;;;4966756;28;20412;-67
2022/03/23 01:43:29;;;;;;;25.90;15.10;;;7.90;97.00;;;;;;4962483;28;20643;-67
2022/03/23 01:45:55;;;;;;;25.60;15.07;;;7.80;99.90;;;;;;4952057;28;20023;-67
2022/03/23 01:48:20;;;;;;;26.13;15.87;;;7.80;99.90;;;;;;4952014;28;20037;-68
2022/03/23 01:50:46;;;;;;;24.63;14.90;;;;;;;;;;4956703;28;20171;-67
2022/03/23 01:53:12;;;;;;;24.30;16.43;;;7.80;99.90;;;;;;4958386;28;20042;-67
2022/03/23 01:55:38;;;;;;;25.57;15.03;;;7.90;92.90;;;;;;4951509;28;20027;-67
2022/03/23 01:58:04;;;;;;;27.13;15.13;;;7.80;99.90;;;;;;4965394;28;20042;-67
2022/03/23 02:00:31;;;;;;;24.63;15.30;;;8.30;99.90;;;;;;4964512;28;20045;-67
2022/03/23 02:02:57;;;;;;;26.10;17.37;;;7.90;94.20;;;;;;4951662;28;20035;-67
2022/03/23 02:05:23;;;;;;;26.27;17.33;;;7.80;99.90;;;;;;4963109;28;20077;-67
2022/03/23 02:07:49;;;;;;;23.67;17.10;;;;;;;;;;4967208;28;20031;-67
2022/03/23 02:10:15;;;;;;;22.13;15.43;;;8.10;99.70;;;;;;4963228;28;20046;-67
2022/03/23 02:12:42;;;;;;;29.57;15.87;;;7.50;93.20;;;;;;4957378;28;20031;-67
2022/03/23 02:15:16;;;;;;;19.90;12.57;;;7.40;99.90;;;;;;4968237;28;20085;-67
2022/03/23 02:17:42;;;;;;;24.65;15.75;;;;;;;;;;4971235;28;20039;-67
2022/03/23 02:20:09;;;;;;;28.50;14.93;;;7.10;96.60;;;;;;4959826;28;20425;-67
2022/03/23 02:22:35;;;;;;;25.43;14.50;;;;;;;;;;4950757;28;20358;-67
2022/03/23 02:25:00;;;;;;;19.60;14.23;;;7.10;99.90;;;;;;4960456;28;20403;-67
2022/03/23 02:27:26;;;;;;;24.30;16.37;;;;;;;;;;4959830;28;20469;-67
2022/03/23 02:29:53;;;;;;;23.87;14.57;;;7.00;99.90;;;;;;4954227;28;20031;-67
2022/03/23 02:32:19;;;;;;;25.73;15.17;;;7.10;99.90;;;;;;4965940;28;20035;-67
2022/03/23 02:34:45;;;;;;;25.07;15.90;;;6.90;94.80;;;;;;4974706;28;20038;-67
2022/03/23 02:37:10;;;;;;;24.40;16.63;;;6.90;99.90;;;;;;4973755;28;20043;-67
2022/03/23 02:39:37;;;;;;;21.67;15.30;;;;;;;;;;4961041;28;20035;-67
2022/03/23 02:42:03;;;;;;;23.07;14.27;;;6.80;99.90;;;;;;4955065;29;20058;-67
2022/03/23 02:44:29;;;;;;;29.37;17.30;;;6.70;99.90;;;;;;4955846;28;20027;-67
2022/03/23 02:46:56;;;;;;;25.27;16.80;;;;;;;;;;4974173;28;20082;-67
2022/03/23 02:49:22;;;;;;;21.23;15.80;;;6.60;99.90;;;;;;4972419;28;20058;-67
2022/03/23 02:51:48;;;;;;;25.43;16.87;;;6.50;93.90;;;;;;4959247;28;20042;-67
2022/03/23 03:02:45;;;;;;;25.43;16.13;;;6.30;97.70;;;;;;4958696;28;20113;-66
2022/03/23 03:05:12;;;;;;;25.00;17.43;;;6.20;99.90;;;;;;4962508;28;20117;-65
2022/03/23 03:10:23;;;;;;;;;;;6.00;95.20;;;;;;4965958;28;20504;-65
2022/03/23 03:12:50;;;;;;;24.07;15.63;;;6.00;99.90;;;;;;4972863;28;19983;-66
2022/03/23 03:15:18;;;;;;;25.23;15.43;;;5.80;95.20;;;;;;4958156;28;20023;-66
2022/03/23 03:17:44;;;;;;;24.50;15.97;;;;;;;;;;4963096;28;20126;-66
2022/03/23 03:20:14;;;;;;;28.10;17.23;;;5.70;95.00;;;;;;4965043;28;20098;-65
2022/03/23 03:22:40;;;;;;;31.57;18.17;;;5.90;99.90;;;;;;4954081;28;20504;-65
2022/03/23 03:25:17;;;;;;;21.60;15.40;;;6.20;99.90;;;;;;4963469;28;20030;-65
2022/03/23 03:27:43;;;;;;;24.27;16.27;;;5.90;95.20;;;;;;4973690;28;20165;-66
2022/03/23 03:30:11;;;;;;;24.37;15.57;;;5.90;99.90;;;;;;4958073;28;20121;-66
2022/03/23 03:32:37;;;;;;;28.87;15.97;;;6.00;99.90;;;;;;4954302;28;20038;-66
2022/03/23 03:35:03;;;;;;;27.40;17.90;;;6.10;99.90;;;;;;4953411;28;20102;-67
2022/03/23 03:37:29;;;;;;;30.47;15.40;;;6.00;99.90;;;;;;4969566;28;20038;-66
2022/03/23 03:39:55;;;;;;;28.00;16.03;;;5.80;99.90;;;;;;4969417;28;20111;-66
2022/03/23 03:42:20;;;;;;;25.10;16.63;;;6.00;99.90;;;;;;4973036;28;20027;-66
2022/03/23 03:44:46;;;;;;;25.73;16.10;;;5.90;99.90;;;;;;4966164;28;20035;-66
2022/03/23 03:47:12;;;;;;;23.33;15.53;;;6.10;98.70;;;;;;4953890;28;20082;-67
2022/03/23 03:49:38;;;;;;;25.63;17.07;;;5.90;99.90;;;;;;4956743;28;20023;-67
2022/03/23 03:52:05;;;;;;;25.67;17.53;;;5.90;99.90;;;;;;4969748;28;20027;-67
2022/03/23 03:54:31;;;;;;;29.63;17.33;;;;;;;;;;4967824;28;20055;-66
2022/03/23 03:56:57;;;;;;;25.43;18.43;;;6.00;99.90;;;;;;4954717;28;20358;-67
2022/03/23 03:59:22;;;;;;;28.83;17.67;;;5.80;98.90;;;;;;4955617;28;20042;-66
2022/03/23 04:01:48;;;;;;;28.00;16.93;;;5.70;97.00;;;;;;4972914;28;20031;-67
2022/03/23 04:04:14;;;;;;;30.70;17.10;;;5.70;98.70;;;;;;4969867;28;20092;-67
2022/03/23 04:06:40;;;;;;;27.13;16.23;;;5.60;99.90;;;;;;4953421;28;20035;-66
2022/03/23 04:09:06;;;;;;;26.23;17.30;;;;;;;;;;4954283;28;20377;-66
2022/03/23 04:11:31;;;;;;;29.73;17.80;;;5.60;99.90;;;;;;4972416;28;20087;-66
2022/03/23 04:13:57;;;;;;;28.80;16.90;;;5.50;99.90;;;;;;4968420;28;20023;-66
2022/03/23 04:16:23;;;;;;;27.40;17.10;;;5.40;99.90;;;;;;4970390;28;20057;-66
2022/03/23 04:18:49;;;;;;;24.17;16.03;;;;;;;;;;4955935;28;20043;-66
2022/03/23 04:21:15;;;;;;;27.37;17.07;;;;;;;;;;4960405;28;20106;-66
2022/03/23 04:23:40;;;;;;;25.43;15.80;;;5.40;99.90;;;;;;4969179;28;20045;-66
2022/03/23 04:26:06;;;;;;;24.83;16.67;;;5.30;99.90;;;;;;4951913;29;20031;-66
2022/03/23 04:28:32;;;;;;;25.83;18.00;;;5.40;99.90;;;;;;4955034;28;20043;-66
2022/03/23 04:30:58;;;;;;;28.27;17.37;;;5.10;99.90;;;;;;4968870;28;20031;-66
2022/03/23 04:33:24;;;;;;;29.43;17.60;;;5.30;99.90;;;;;;4960210;28;20035;-66
2022/03/23 04:35:49;;;;;;;26.10;16.90;;;4.90;99.90;;;;;;4958543;28;20395;-66
2022/03/23 04:38:15;;;;;;;26.23;18.13;;;5.10;99.90;;;;;;4971963;28;20042;-66
2022/03/23 04:40:41;;;;;;;31.70;15.87;;;;;;;;;;4958037;28;20035;-66
2022/03/23 04:43:07;;;;;;;28.80;17.50;;;;;;;;;;4952889;28;20066;-66
2022/03/23 04:45:33;;;;;;;32.80;17.40;;;5.60;99.90;;;;;;4952834;28;20051;-66
2022/03/23 04:47:58;;;;;;;28.37;18.87;;;5.80;99.90;;;;;;4952315;29;20051;-66
2022/03/23 04:50:24;;;;;;;30.03;18.90;;;;;;;;;;4956708;28;20028;-66
2022/03/23 04:52:52;;;;;;;24.37;18.37;;;5.60;99.90;;;;;;4970695;28;20049;-66
2022/03/23 04:55:18;;;;;;;30.17;19.30;;;5.60;95.10;;;;;;4971699;28;20023;-66
2022/03/23 04:57:44;;;;;;;25.37;17.23;;;6.00;99.90;;;;;;4970387;28;20043;-66
2022/03/23 05:00:13;;;;;;;26.23;16.53;;;5.50;99.90;;;;;;4971500;28;20118;-66
2022/03/23 05:02:40;;;;;;;28.10;16.97;;;5.60;99.90;;;;;;4970103;28;20547;-66
2022/03/23 05:05:07;;;;;;;24.13;17.27;;;5.50;99.90;;;;;;4962175;28;20031;-66
2022/03/23 05:07:33;;;;;;;24.90;17.53;;;;;;;;;;4960653;28;20038;-67
2022/03/23 05:09:59;;;;;;;33.47;18.20;;;5.80;99.90;;;;;;4950821;29;20043;-68
2022/03/23 05:12:25;;;;;;;29.97;19.90;;;;;;;;;;4959596;28;20499;-67
2022/03/23 05:14:50;;;;;;;30.87;19.17;;;6.10;99.20;;;;;;4964058;28;20039;-67
2022/03/23 05:17:16;;;;;;;31.07;18.40;;;;;;;;;;4950433;29;20031;-67
2022/03/23 05:19:42;;;;;;;31.33;17.17;;;6.40;99.90;;;;;;4952386;28;20409;-67
2022/03/23 05:22:08;;;;;;;25.50;17.13;;;6.30;99.90;;;;;;4963901;28;20070;-67
2022/03/23 05:24:34;;;;;;;28.93;17.90;;;;;;;;;;4969291;28;20130;-67
2022/03/23 05:27:00;;;;;;;27.53;17.10;;;;;;;;;;4970564;28;20117;-67
2022/03/23 05:29:26;;;;;;;28.53;17.23;;;5.80;97.60;;;;;;4956475;28;20651;-67
2022/03/23 05:31:51;;;;;;;28.97;17.07;;;5.60;99.90;;;;;;4951770;29;20067;-67
2022/03/23 05:34:17;;;;;;;28.97;17.17;;;5.60;99.90;;;;;;4957054;28;20027;-67
2022/03/23 05:36:42;;;;;;;28.93;18.63;;;5.50;99.90;;;;;;4963123;28;20049;-68
2022/03/23 05:39:08;;;;;;;26.27;16.60;;;;;;;;;;4970525;28;20408;-67
2022/03/23 05:41:34;;;;;;;29.47;16.77;;;;;;;;;;4971066;28;20027;-67
2022/03/23 05:44:00;;;;;;;29.77;18.90;;;5.30;98.20;;;;;;4968613;28;20077;-67
2022/03/23 05:46:25;;;;;;;29.23;17.57;;;5.40;99.90;;;;;;4967870;28;20038;-67
2022/03/23 05:48:53;;;;;;;26.60;16.37;;;5.50;99.90;;;;;;4967107;28;20092;-69
2022/03/23 05:51:19;;;;;;;31.83;17.93;;;;;;;;;;4963113;28;20105;-68
2022/03/23 05:53:45;;;;;;;26.10;16.63;;;5.40;99.90;;;;;;4971305;28;20125;-67
2022/03/23 05:56:11;;;;;;;24.10;16.53;;;;;;;;;;4969393;28;20102;-67
2022/03/23 05:58:36;;;;;;;27.77;16.03;;;5.30;99.90;;;;;;4970501;28;20046;-67
2022/03/23 06:01:03;;;;;;;26.87;17.10;;;;;;;;;;4968307;28;20023;-67
2022/03/23 06:03:29;;;;;;;28.30;15.93;;;5.20;99.90;;;;;;4969713;28;20068;-67
2022/03/23 06:05:55;;;;;;;24.77;16.80;;;5.30;99.90;;;;;;4972566;28;20250;-66
2022/03/23 06:08:21;;;;;;;32.73;17.03;;;5.30;98.70;;;;;;4957764;29;20091;-67
2022/03/23 06:10:46;;;;;;;23.30;16.03;;;4.80;97.90;;;;;;4967957;28;20047;-66
2022/03/23 06:13:12;;;;;;;25.50;16.27;;;5.30;99.90;;;;;;4974121;28;20035;-67
2022/03/23 06:15:38;;;;;;;25.37;17.00;;;5.20;95.40;;;;;;4961173;28;20027;-67
2022/03/23 06:18:04;;;;;;;30.07;17.53;;;;;;;;;;4959640;28;20416;-67
2022/03/23 06:20:30;;;;;;;24.33;16.30;;;5.20;99.40;;;;;;4965882;28;20038;-67
2022/03/23 06:22:55;;;;;;;33.60;17.83;;;5.20;99.90;;;;;;4958044;28;20512;-67
2022/03/23 06:25:21;;;;;;;27.00;18.03;;;5.20;99.90;;;;;;4974374;28;20031;-68
2022/03/23 06:27:46;;;;;;;28.40;16.70;;;5.30;98.70;;;;;;4977043;28;20058;-67
2022/03/23 06:30:12;;;;;;;25.57;16.83;;;5.80;96.90;;;;;;4966445;28;20058;-66
2022/03/23 06:32:38;;;;;;;24.63;16.60;;;;;;;;;;4967345;28;20050;-66
2022/03/23 06:35:04;;;;;;;25.30;17.33;;;5.70;99.90;;;;;;4969167;28;20027;-65
2022/03/23 06:37:30;;;;;;;29.13;18.17;;;5.60;99.90;;;;;;4956451;29;20051;-65
2022/03/23 06:39:56;;;;;;;29.63;17.90;;;5.40;99.90;;;;;;4957819;28;20027;-67
2022/03/23 06:42:23;;;;;;;35.60;17.07;;;6.00;99.90;;;;;;4958232;28;20038;-66
2022/03/23 06:44:49;;;;;;;33.07;18.63;;;;;;;;;;4984530;28;20035;-65
2022/03/23 06:47:15;;;;;;;32.27;19.17;;;;;;;;;;4967658;28;20028;-66
2022/03/23 06:49:41;;;;;;;26.97;18.43;;;;;;;;;;4996490;28;20034;-65
2022/03/23 06:52:07;;;;;;;35.73;23.03;;;;;;;;;;4989360;28;20149;-65
2022/03/23 06:54:33;;;;;;;35.17;19.90;;;;;;;;;;4976920;28;20121;-66
2022/03/23 06:56:59;;;;;;;34.87;19.93;;;;;;;;;;4976465;28;20054;-66
2022/03/23 06:59:25;;;;;;;36.20;20.60;;;6.50;99.80;;;;;;4976774;28;20435;-66
2022/03/23 07:01:50;;;;;;;33.30;20.47;;;6.90;99.90;;;;;;4976715;28;20054;-65
2022/03/23 07:04:16;;;;;;;34.67;21.27;;;;;;;;;;4982238;28;20019;-65
2022/03/23 07:06:42;;;;;;;38.13;22.30;;;7.10;99.90;;;;;;4976888;28;20035;-65
2022/03/23 07:11:52;;;;;;;39.63;22.53;;;7.80;99.90;;;;;;4972319;28;20062;-64
2022/03/23 07:14:18;;;;;;;32.43;21.00;;;7.70;99.90;;;;;;4976173;28;20034;-65
2022/03/23 07:16:43;;;;;;;39.93;23.23;;;7.80;99.90;;;;;;4972620;28;20843;-64
2022/03/23 07:19:09;;;;;;;35.83;21.60;;;8.30;94.00;;;;;;4973542;28;20130;-65
2022/03/23 07:21:35;;;;;;;34.07;22.80;;;7.80;99.90;;;;;;4973628;28;20912;-65
2022/03/23 07:24:01;;;;;;;36.20;22.10;;;8.00;97.40;;;;;;4965445;28;20043;-66
2022/03/23 07:26:26;;;;;;;36.33;24.80;;;8.30;99.90;;;;;;4957143;28;20032;-65
2022/03/23 07:28:52;;;;;;;41.47;24.97;;;;;;;;;;4953946;29;20429;-66
2022/03/23 07:31:18;;;;;;;32.03;23.00;;;8.50;99.80;;;;;;4953821;29;20144;-65
2022/03/23 07:33:44;;;;;;;40.17;25.57;;;8.50;99.70;;;;;;4954325;29;20066;-65
2022/03/23 07:36:12;;;;;;;34.27;22.77;;;8.80;99.40;;;;;;4954013;29;20109;-66
2022/03/23 07:38:38;;;;;;;44.57;23.23;;;8.90;99.20;;;;;;4966202;28;20499;-65
2022/03/23 07:41:04;;;;;;;31.40;20.57;;;;;;;;;;4972467;28;20392;-65
2022/03/23 07:43:30;;;;;;;32.77;20.00;;;;;;;;;;4972748;28;20035;-65
2022/03/23 07:45:55;;;;;;;33.77;22.57;;;9.00;95.70;;;;;;4972918;28;20550;-66
2022/03/23 07:48:22;;;;;;;32.13;20.07;;;8.90;99.00;;;;;;4972513;28;20041;-65
2022/03/23 07:50:48;;;;;;;32.07;21.23;;;;;;;;;;4973269;28;20396;-66
2022/03/23 07:53:14;;;;;;;32.77;20.77;;;9.20;92.70;;;;;;4973557;28;20031;-65
2022/03/23 07:55:40;;;;;;;35.53;21.80;;;9.20;93.40;;;;;;4971205;28;20046;-65
2022/03/23 07:58:06;;;;;;;35.13;21.80;;;9.30;97.60;;;;;;4969067;28;20031;-65
2022/03/23 08:00:32;;;;;;;28.87;19.70;;;;;;;;;;4989550;28;20030;-65
2022/03/23 08:02:58;;;;;;;34.33;21.67;;;;;;;;;;4969586;28;20544;-65
2022/03/23 08:05:25;;;;;;;31.83;20.97;;;9.30;98.50;;;;;;4970128;28;20490;-65
2022/03/23 08:07:50;;;;;;;35.37;21.77;;;9.40;98.40;;;;;;4971120;28;20031;-66
2022/03/23 08:10:16;;;;;;;33.20;20.43;;;9.60;94.20;;;;;;4972147;28;20051;-65
2022/03/23 08:12:42;;;;;;;34.03;21.93;;;;;;;;;;4972493;28;20022;-65
2022/03/23 08:15:09;;;;;;;35.83;22.40;;;9.90;98.10;;;;;;4972494;28;20035;-65
2022/03/23 08:17:38;;;;;;;29.30;21.30;;;10.00;90.50;;;;;;4971384;28;20043;-65
2022/03/23 08:22:56;;;;;;;28.30;22.03;;;9.90;97.60;;;;;;4969286;28;20042;-66
2022/03/23 08:25:22;;;;;;;31.80;21.00;;;;;;;;;;4970504;28;20062;-66
2022/03/23 08:27:48;;;;;;;32.43;20.83;;;10.10;95.10;;;;;;4966481;28;20054;-65
2022/03/23 08:30:14;;;;;;;28.10;20.80;;;10.20;97.40;;;;;;4970960;28;20031;-65
2022/03/23 08:32:40;;;;;;;30.73;21.63;;;;;;;;;;4970327;28;20038;-65
2022/03/23 08:35:06;;;;;;;31.97;22.80;;;10.20;90.20;;;;;;4952873;29;20034;-65
2022/03/23 08:37:32;;;;;;;28.83;20.87;;;10.50;97.10;;;;;;4966589;28;20129;-65
2022/03/23 08:39:58;;;;;;;33.50;22.43;;;10.40;92.70;;;;;;4967694;28;20110;-66
2022/03/23 08:42:25;;;;;;;31.07;20.47;;;;;;;;;;4962483;28;20031;-65
2022/03/23 08:44:50;;;;;;;29.03;19.60;;;10.50;96.90;;;;;;4971709;28;20521;-66
2022/03/23 08:47:17;;;;;;;31.13;21.20;;;;;;;;;;4971715;28;20031;-65
2022/03/23 08:49:43;;;;;;;28.23;20.30;;;10.80;96.70;;;;;;4960840;28;20493;-65
2022/03/23 08:52:09;;;;;;;30.50;21.17;;;10.80;88.80;;;;;;4952652;28;20031;-65
2022/03/23 08:54:35;;;;;;;37.03;23.33;;;11.00;96.40;;;;;;4965475;28;20508;-66
2022/03/23 08:57:01;;;;;;;33.03;21.67;;;;;;;;;;4970133;28;20030;-65
2022/03/23 08:59:27;;;;;;;36.13;21.63;;;11.10;96.10;;;;;;4971176;28;20061;-65
2022/03/23 09:01:53;;;;;;;39.30;21.57;;;;;;;;;;4966788;28;20026;-65
2022/03/23 09:04:19;;;;;;;30.77;20.53;;;;;;;;;;4969670;28;20488;-66
2022/03/23 09:06:44;;;;;;;31.60;22.87;;;11.50;92.10;;;;;;4971849;28;20023;-64
2022/03/23 09:09:10;;;;;;;33.00;21.20;;;11.50;95.30;;;;;;4969798;28;20035;-64
2022/03/23 09:11:36;;;;;;;29.23;20.60;;;;;;;;;;4971688;28;20031;-64
2022/03/23 09:14:01;;;;;;;26.30;19.03;;;11.80;95.30;;;;;;4971551;28;20035;-64
2022/03/23 09:16:27;;;;;;;36.70;24.13;;;;;;;;;;4969743;28;20491;-65
2022/03/23 09:18:53;;;;;;;37.13;25.83;;;12.10;94.30;;;;;;4970659;28;20042;-64
2022/03/23 09:21:20;;;;;;;33.90;25.35;;;;;;;;;;4971060;28;20420;-65
2022/03/23 09:23:45;;;;;;;34.45;23.70;;;12.10;94.00;;;;;;4970407;28;20031;-65
2022/03/23 09:26:11;;;;;;;29.80;22.73;;;;;;;;;;4967957;28;20037;-65
2022/03/23 09:28:38;;;;;;;32.22;22.00;;;12.30;92.20;;;;;;4971141;28;20031;-65
2022/03/23 09:31:04;;;;;;;32.38;21.67;;;12.60;94.20;;;;;;4970318;28;20063;-65
2022/03/23 09:33:29;;;;;;;32.28;22.83;;;12.40;94.20;;;;;;4970381;28;20061;-65
2022/03/23 09:35:55;;;;;;;34.38;24.58;;;12.70;91.50;;;;;;4970980;28;20106;-65
2022/03/23 09:38:21;;;;;;;43.03;28.00;;;12.90;87.20;;;;;;4970453;28;20038;-64
2022/03/23 09:40:50;;;;;;;35.90;26.38;;;12.80;82.10;;;;;;4970678;28;20034;-64
2022/03/23 09:43:19;;;;;;;34.15;24.67;;;12.90;81.80;;;;;;4970787;28;20039;-65
2022/03/23 09:45:47;;;;;;;34.30;22.60;;;;;;;;;;4971101;28;20492;-64
2022/03/23 09:48:16;;;;;;;32.13;24.10;;;13.10;92.90;;;;;;4970439;28;20030;-63
2022/03/23 09:50:45;;;;;;;31.45;21.92;;;13.00;85.70;;;;;;4954325;28;20023;-63
2022/03/23 09:53:12;;;;;;;31.73;22.63;;;13.20;92.50;;;;;;4953909;28;20031;-64
2022/03/23 09:55:38;;;;;;;32.63;22.52;;;13.60;92.50;;;;;;4969313;28;20030;-64
2022/03/23 09:58:06;;;;;;;26.88;21.13;;;13.50;92.50;;;;;;4969706;28;20046;-64
2022/03/23 10:00:37;;;;;;;28.70;20.83;;;14.50;80.00;;;;;;4970698;28;20034;-65
2022/03/23 10:03:12;;;;;;;29.48;20.27;;;13.60;80.10;;;;;;4968597;28;20354;-65
2022/03/23 10:06:14;;;;;;;31.65;23.40;;;13.80;92.20;;;;;;4965000;28;20065;-65
2022/03/23 10:09:15;;;;;;;29.15;22.02;;;13.60;92.00;;;;;;4971324;28;20043;-65
2022/03/23 10:12:06;;;;;;;30.05;23.20;;;13.50;91.80;;;;;;4970545;28;20078;-64
2022/03/23 10:15:09;;;;;;;28.23;21.25;;;13.90;91.90;;;;;;4970083;28;20035;-64
2022/03/23 10:17:59;;;;;;;27.42;19.05;;;13.90;85.90;;;;;;4970593;28;20047;-65
2022/03/23 10:20:24;;;;;;;29.90;21.75;;;13.80;91.80;;;;;;4969425;28;20725;-65
2022/03/23 10:22:52;;;;;;;34.33;20.98;;;14.30;91.60;;;;;;4970463;28;20031;-65
2022/03/23 10:25:28;;;;;;;33.13;23.40;;;14.10;76.50;;;;;;4969415;28;20035;-65
2022/03/23 10:27:58;;;;;;;29.55;23.02;;;14.30;81.50;;;;;;4970419;28;20018;-64
2022/03/23 10:30:38;;;;;;;28.02;21.00;;;14.40;90.80;;;;;;4967001;28;20080;-66
2022/03/23 10:33:14;;;;;;;34.35;21.27;;;14.20;90.70;;;;;;4966521;28;20325;-64
2022/03/23 10:35:40;;;;;;;29.50;19.77;;;;;;;;;;4967344;28;20031;-65
2022/03/23 10:38:37;;;;;;;31.30;23.67;;;14.60;90.30;;;;;;4970611;28;20368;-65
2022/03/23 10:41:10;;;;;;;30.33;21.33;;;14.30;90.20;;;;;;4969814;28;20041;-65
2022/03/23 10:43:37;;;;;;;29.50;22.05;;;14.50;73.70;;;;;;4969987;28;20041;-65
2022/03/23 10:46:10;;;;;;;32.60;22.58;;;14.60;71.60;;;;;;4970528;28;20432;-65
2022/03/23 10:48:36;;;;;;;31.95;25.38;;;14.80;88.50;;;;;;4962546;28;20019;-65
2022/03/23 10:51:01;;;;;;;32.35;23.75;;;14.80;87.80;;;;;;4954023;28;20527;-65
2022/03/23 10:53:44;;;;;;;30.77;24.42;;;14.70;86.60;;;;;;4955619;28;20019;-66
2022/03/23 10:56:10;;;;;;;28.75;22.35;;;;;;;;;;4955466;28;20071;-65
2022/03/23 10:58:37;;;;;;;25.15;18.35;;;;;;;;;;4973386;28;20070;-65
2022/03/23 11:01:05;;;;;;;28.30;21.70;;;15.20;74.20;;;;;;4973101;28;20015;-65
2022/03/23 11:03:36;;;;;;;28.58;22.83;;;15.00;69.10;;;;;;4972476;28;20037;-65
2022/03/23 11:06:01;;;;;;;34.58;22.13;;;15.10;86.10;;;;;;4972854;28;20074;-67
2022/03/23 11:08:27;;;;;;;31.80;23.25;;;15.00;85.90;;;;;;4973959;28;20035;-65
2022/03/23 11:16:36;;;;;;;32.67;24.88;;;15.20;88.30;;;;;;4973496;28;20030;-64
2022/03/23 11:19:10;;;;;;;29.77;21.52;;;15.10;88.30;;;;;;4965982;28;20042;-65
2022/03/23 11:21:57;;;;;;;35.13;24.33;;;14.70;85.60;;;;;;4971433;28;20035;-65
2022/03/23 11:24:23;;;;;;;26.08;19.95;;;14.90;89.00;;;;;;4972923;28;20058;-65
2022/03/23 11:26:50;;;;;;;33.63;20.27;;;15.00;79.90;;;;;;4973454;28;20030;-65
2022/03/23 11:29:17;;;;;;;33.17;24.52;;;15.00;73.50;;;;;;4973659;28;20042;-65
2022/03/23 11:31:45;;;;;;;28.10;20.48;;;15.00;73.90;;;;;;4973885;28;20480;-65
2022/03/23 11:34:12;;;;;;;32.63;21.80;;;15.10;74.70;;;;;;4973018;28;20380;-65
2022/03/23 11:36:39;;;;;;;30.48;21.23;;;;;;;;;;4973482;28;20027;-64
2022/03/23 11:39:05;;;;;;;29.65;21.60;;;;;;;;;;4971560;28;20039;-65
2022/03/23 11:41:33;;;;;;;26.95;20.77;;;15.00;88.30;;;;;;4971840;28;20019;-66
2022/03/23 11:43:58;;;;;;;30.35;22.92;;;15.00;87.80;;;;;;4971065;28;20415;-67
2022/03/23 11:46:25;;;;;;;34.70;23.83;;;15.10;87.40;;;;;;4976644;28;20093;-65
2022/03/23 11:49:06;;;;;;;29.20;21.92;;;15.20;87.40;;;;;;4969482;28;20573;-64
2022/03/23 11:51:56;;;;;;;29.02;22.42;;;15.40;87.90;;;;;;4973256;28;20446;-65
2022/03/23 11:55:36;;;;;;;29.90;23.08;;;15.10;88.20;;;;;;4972932;28;20531;-65
2022/03/23 11:57:15;;;;;;;27.17;21.95;;;;;;;;;;4956243;28;20035;-65
2022/03/23 11:59:42;;;;;;;28.00;22.05;;;15.20;88.20;;;;;;4953873;29;20090;-65
2022/03/23 12:02:08;;;;;;;28.13;20.98;;;15.30;88.30;;;;;;4952444;28;20043;-65
2022/03/23 12:04:34;;;;;;;29.60;22.25;;;;;;;;;;4968436;28;20057;-65
2022/03/23 12:07:03;;;;;;;31.83;21.85;;;15.30;88.60;;;;;;4972878;28;20069;-65
2022/03/23 12:09:33;;;;;;;25.92;19.80;;;15.30;80.00;;;;;;4972536;28;20078;-65
2022/03/23 12:12:00;;;;;;;27.13;21.90;;;15.80;88.50;;;;;;4971863;28;20035;-65
2022/03/23 12:14:31;;;;;;;31.95;22.10;;;15.80;88.20;;;;;;4972290;28;20054;-65
2022/03/23 12:16:57;;;;;;;31.67;20.38;;;;;;;;;;4970852;28;20472;-65
2022/03/23 12:19:51;;;;;;;32.65;21.88;;;15.70;87.70;;;;;;4953956;28;20043;-65
2022/03/23 12:22:38;;;;;;;23.88;18.58;;;15.90;87.60;;;;;;4953357;29;20054;-66
2022/03/23 12:25:24;;;;;;;29.17;21.02;;;15.70;86.90;;;;;;4948921;29;20054;-67
2022/03/23 12:28:02;;;;;;;28.20;20.55;;;15.80;86.80;;;;;;4967018;28;20031;-65
2022/03/23 12:30:27;;;;;;;28.23;18.52;;;16.00;86.80;;;;;;4969606;28;20026;-65
2022/03/23 12:32:56;;;;;;;25.27;18.60;;;16.00;70.80;;;;;;4977139;28;20502;-65
2022/03/23 12:35:35;;;;;;;24.77;18.52;;;15.90;86.80;;;;;;4991858;28;20045;-65
2022/03/23 12:38:02;;;;;;;23.85;15.48;;;15.90;78.00;;;;;;4977130;28;20038;-65
2022/03/23 12:40:41;;;;;;;26.20;18.58;;;15.90;81.70;;;;;;4971804;28;20034;-65
2022/03/23 12:43:08;;;;;;;30.85;20.08;;;15.70;84.90;;;;;;4971055;28;20580;-65
2022/03/23 12:45:39;;;;;;;24.45;18.35;;;16.50;85.40;;;;;;4969535;28;20023;-66
2022/03/23 12:59:20;;;;;;;23.98;16.55;;;16.50;66.30;;;;;;4969876;28;20122;-65
2022/03/23 13:01:47;;;;;;;25.58;17.00;;;16.70;81.10;;;;;;4991320;28;20113;-67
2022/03/23 13:04:44;;;;;;;24.17;16.00;;;16.80;83.30;;;;;;4974846;28;20484;-65
2022/03/23 13:07:27;;;;;;;24.50;17.10;;;16.60;83.00;;;;;;4971670;28;20023;-66
2022/03/23 13:09:56;;;;;;;21.23;16.83;;;16.90;83.20;;;;;;4971383;28;20042;-66
2022/03/23 13:12:28;;;;;;;26.60;17.02;;;16.90;83.40;;;;;;4970047;28;20027;-65
2022/03/23 13:14:54;;;;;;;24.90;16.85;;;16.80;83.00;;;;;;4973672;28;20022;-65
2022/03/23 13:17:19;;;;;;;25.02;15.13;;;16.70;75.70;;;;;;4966818;28;20540;-65
2022/03/23 13:19:45;;;;;;;19.02;13.38;;;16.90;83.10;;;;;;4975778;28;20034;-65
2022/03/23 13:22:11;;;;;;;18.55;11.77;;;17.10;83.20;;;;;;4989667;28;20026;-66
2022/03/23 13:24:37;;;;;;;20.35;12.57;;;;;;;;;;4991022;28;20027;-66
2022/03/23 13:27:12;;;;;;;15.63;11.32;;;16.60;82.60;;;;;;4991020;28;20026;-66
2022/03/23 13:29:38;;;;;;;19.27;11.98;;;16.90;82.50;;;;;;4990105;28;20034;-65
2022/03/23 13:32:05;;;;;;;20.80;11.68;;;17.10;82.00;;;;;;4990744;28;20031;-66